createdAt,value
2022-08-19T00:02:04.446Z,6.13
2022-08-19T00:04:37.197Z,4.38
2022-08-19T00:07:07.778Z,5.78
2022-08-19T00:09:35.146Z,5.35
2022-08-19T00:12:02.335Z,9.73
2022-08-19T00:14:32.250Z,4.53
2022-08-19T00:16:59.745Z,7.82
2022-08-19T00:19:26.798Z,7.10
2022-08-19T00:21:54.315Z,5.25
2022-08-19T00:24:21.787Z,7.22
2022-08-19T00:26:48.638Z,4.90
2022-08-19T00:29:19.322Z,5.88
2022-08-19T00:31:47.675Z,5.45
2022-08-19T00:34:15.622Z,4.97
2022-08-19T00:36:43.889Z,3.75
2022-08-19T00:39:12.021Z,3.85
2022-08-19T00:41:40.255Z,4.00
2022-08-19T00:44:11.949Z,8.65
2022-08-19T00:46:42.777Z,5.05
2022-08-19T00:49:30.630Z,4.72
2022-08-19T00:52:16.088Z,6.32
2022-08-19T00:54:47.785Z,4.70
2022-08-19T00:57:21.935Z,6.55
2022-08-19T01:00:02.272Z,4.95
2022-08-19T01:02:31.455Z,4.82
2022-08-19T01:05:01.257Z,7.32
2022-08-19T01:07:28.310Z,7.20
2022-08-19T01:10:04.823Z,6.30
2022-08-19T01:12:31.935Z,5.57
2022-08-19T01:15:00.558Z,5.20
2022-08-19T01:17:28.374Z,4.97
2022-08-19T01:19:55.422Z,10.13
2022-08-19T01:22:31.401Z,6.60
2022-08-19T01:25:00.384Z,5.00
2022-08-19T01:27:29.565Z,5.38
2022-08-19T01:30:08.689Z,7.45
2022-08-19T01:32:35.882Z,6.82
2022-08-19T01:35:05.159Z,6.95
2022-08-19T01:37:55.895Z,5.88
2022-08-19T01:40:27.491Z,7.03
2022-08-19T01:42:55.161Z,5.70
2022-08-19T01:45:26.504Z,7.85
2022-08-19T01:48:01.115Z,6.60
2022-08-19T01:50:31.750Z,6.60
2022-08-19T01:53:02.384Z,8.48
2022-08-19T01:55:36.357Z,5.03
2022-08-19T01:58:19.637Z,5.85
2022-08-19T02:00:48.178Z,8.02
2022-08-19T02:03:15.362Z,7.28
2022-08-19T02:05:43.813Z,8.07
2022-08-19T02:08:12.216Z,6.15
2022-08-19T02:10:44.723Z,5.13
2022-08-19T02:13:14.385Z,7.57
2022-08-19T02:15:41.773Z,7.10
2022-08-19T02:18:09.318Z,9.30
2022-08-19T02:20:39.401Z,7.55
2022-08-19T02:23:13.717Z,7.50
2022-08-19T02:25:47.916Z,6.55
2022-08-19T02:28:18.566Z,5.43
2022-08-19T02:30:49.344Z,7.38
2022-08-19T02:33:17.268Z,8.52
2022-08-19T02:35:46.715Z,6.30
2022-08-19T02:38:27.154Z,7.10
2022-08-19T02:41:01.853Z,6.60
2022-08-19T02:43:33.726Z,5.30
2022-08-19T02:46:02.232Z,8.32
2022-08-19T02:48:29.496Z,6.55
2022-08-19T02:50:56.564Z,5.75
2022-08-19T02:53:27.690Z,6.13
2022-08-19T02:55:55.587Z,6.40
2022-08-19T02:58:24.096Z,5.72
2022-08-19T03:00:57.594Z,5.47
2022-08-19T03:03:24.761Z,5.00
2022-08-19T03:05:56.795Z,6.00
2022-08-19T03:08:26.694Z,6.57
2022-08-19T03:10:54.278Z,6.82
2022-08-19T03:13:21.732Z,6.68
2022-08-19T03:15:49.230Z,5.75
2022-08-19T03:18:17.977Z,6.80
2022-08-19T03:20:48.392Z,7.13
2022-08-19T03:23:17.353Z,8.70
2022-08-19T03:25:58.461Z,6.97
2022-08-19T03:28:35.362Z,6.95
2022-08-19T03:31:44.282Z,7.70
2022-08-19T03:33:54.657Z,10.15
2022-08-19T03:36:29.547Z,8.10
2022-08-19T03:39:00.857Z,8.55
2022-08-19T03:41:45.513Z,7.90
2022-08-19T03:46:48.520Z,7.07
2022-08-19T03:49:18.295Z,6.85
2022-08-19T03:51:47.661Z,7.95
2022-08-19T03:54:17.187Z,7.78
2022-08-19T03:56:47.615Z,8.18
2022-08-19T03:59:26.900Z,8.23
2022-08-19T04:01:57.578Z,9.68
2022-08-19T04:04:25.560Z,7.68
2022-08-19T04:06:57.047Z,6.93
2022-08-19T04:09:24.353Z,8.48
2022-08-19T04:11:55.043Z,7.30
2022-08-19T04:14:34.559Z,7.05
2022-08-19T04:17:05.703Z,6.65
2022-08-19T04:19:35.360Z,7.15
2022-08-19T04:22:03.426Z,7.30
2022-08-19T04:24:31.042Z,7.88
2022-08-19T04:26:59.807Z,6.43
2022-08-19T04:29:27.906Z,6.50
2022-08-19T04:31:57.335Z,8.57
2022-08-19T04:34:28.558Z,6.55
2022-08-19T04:36:58.946Z,9.80
2022-08-19T04:39:49.094Z,6.40
2022-08-19T04:42:37.589Z,10.63
2022-08-19T04:45:12.416Z,9.65
2022-08-19T04:50:26.965Z,8.05
2022-08-19T04:52:54.444Z,8.57
2022-08-19T04:55:21.726Z,7.60
2022-08-19T04:57:48.636Z,9.65
2022-08-19T05:00:15.755Z,9.88
2022-08-19T05:02:42.620Z,8.75
2022-08-19T05:05:10.445Z,11.07
2022-08-19T05:07:38.287Z,8.40
2022-08-19T05:10:07.473Z,6.07
2022-08-19T05:12:34.481Z,8.40
2022-08-19T05:15:04.143Z,15.45
2022-08-19T05:17:36.020Z,8.20
2022-08-19T05:20:26.120Z,10.15
2022-08-19T05:22:53.311Z,8.82
2022-08-19T05:25:22.767Z,8.02
2022-08-19T05:27:49.882Z,11.25
2022-08-19T05:30:17.981Z,10.90
2022-08-19T05:32:45.747Z,11.35
2022-08-19T05:35:13.284Z,12.30
2022-08-19T05:37:43.514Z,10.00
2022-08-19T05:40:11.594Z,12.68
2022-08-19T05:42:39.209Z,8.00
2022-08-19T05:45:07.309Z,12.57
2022-08-19T05:47:34.267Z,13.32
2022-08-19T05:50:04.941Z,12.85
2022-08-19T05:52:32.539Z,16.35
2022-08-19T05:55:00.517Z,13.77
2022-08-19T05:57:29.768Z,16.95
2022-08-19T05:59:58.837Z,20.45
2022-08-19T06:02:27.888Z,15.98
2022-08-19T06:04:54.952Z,15.82
2022-08-19T06:07:22.705Z,19.10
2022-08-19T06:09:59.791Z,22.33
2022-08-19T06:12:35.351Z,12.40
2022-08-19T06:15:14.360Z,17.08
2022-08-19T06:17:45.128Z,29.13
2022-08-19T06:20:15.884Z,30.80
2022-08-19T06:22:47.861Z,34.80
2022-08-19T06:25:16.032Z,38.33
2022-08-19T06:28:14.550Z,36.78
2022-08-19T06:30:30.523Z,41.38
2022-08-19T06:32:57.537Z,38.95
2022-08-19T06:35:24.690Z,37.95
2022-08-19T06:37:51.824Z,34.88
2022-08-19T06:40:18.839Z,38.63
2022-08-19T06:42:54.118Z,34.92
2022-08-19T06:45:24.554Z,32.20
2022-08-19T06:47:56.978Z,34.42
2022-08-19T06:50:26.937Z,34.47
2022-08-19T06:52:55.252Z,37.65
2022-08-19T06:55:22.594Z,33.33
2022-08-19T06:57:51.953Z,34.10
2022-08-19T07:00:19.093Z,35.08
2022-08-19T07:02:50.590Z,34.72
2022-08-19T07:05:23.406Z,35.30
2022-08-19T07:07:51.054Z,33.85
2022-08-19T07:10:19.293Z,33.75
2022-08-19T07:12:46.281Z,36.22
2022-08-19T07:15:13.955Z,36.17
2022-08-19T07:17:42.161Z,33.40
2022-08-19T07:20:11.210Z,34.00
2022-08-19T07:22:39.681Z,35.70
2022-08-19T07:25:10.370Z,33.95
2022-08-19T07:27:39.795Z,32.47
2022-08-19T07:30:11.617Z,38.45
2022-08-19T07:32:40.286Z,39.42
2022-08-19T07:35:08.409Z,34.25
2022-08-19T07:37:36.511Z,35.40
2022-08-19T07:40:06.737Z,35.40
2022-08-19T07:42:33.695Z,34.30
2022-08-19T07:45:00.696Z,31.83
2022-08-19T07:47:50.025Z,31.90
2022-08-19T07:50:20.257Z,29.58
2022-08-19T07:52:50.470Z,33.60
2022-08-19T07:55:40.057Z,29.20
2022-08-19T07:58:15.322Z,28.25
2022-08-19T08:00:45.197Z,33.75
2022-08-19T08:03:12.950Z,32.35
2022-08-19T08:05:58.763Z,34.45
2022-08-19T08:08:44.515Z,32.42
2022-08-19T08:11:20.516Z,34.22
2022-08-19T08:14:00.881Z,32.65
2022-08-19T08:16:39.520Z,30.02
2022-08-19T08:19:22.969Z,31.38
2022-08-19T08:21:57.858Z,36.33
2022-08-19T08:24:29.812Z,31.75
2022-08-19T08:27:02.041Z,28.35
2022-08-19T08:29:34.734Z,30.42
2022-08-19T08:32:02.795Z,24.08
2022-08-19T08:34:29.656Z,25.73
2022-08-19T08:36:56.847Z,24.98
2022-08-19T08:39:23.820Z,20.27
2022-08-19T08:41:56.920Z,18.38
2022-08-19T08:44:43.770Z,21.23
2022-08-19T08:47:18.061Z,23.13
2022-08-19T08:50:10.171Z,26.45
2022-08-19T08:52:49.484Z,25.98
2022-08-19T08:55:24.719Z,25.15
2022-08-19T08:58:02.802Z,25.83
2022-08-19T09:00:35.408Z,26.10
2022-08-19T09:03:17.267Z,23.50
2022-08-19T09:06:03.239Z,21.50
2022-08-19T09:11:50.697Z,19.70
2022-08-19T09:14:54.040Z,24.30
2022-08-19T09:17:28.397Z,27.98
2022-08-19T09:20:05.315Z,23.05
2022-08-19T09:22:33.082Z,21.08
2022-08-19T09:25:00.439Z,24.75
2022-08-19T09:27:41.810Z,20.83
2022-08-19T09:30:18.461Z,21.33
2022-08-19T09:32:46.548Z,22.95
2022-08-19T09:35:15.322Z,21.77
2022-08-19T09:37:44.339Z,21.83
2022-08-19T09:40:13.493Z,26.85
2022-08-19T09:42:50.412Z,24.38
2022-08-19T09:45:22.932Z,26.73
2022-08-19T09:47:54.284Z,23.33
2022-08-19T09:50:24.244Z,21.95
2022-08-19T09:52:55.335Z,21.85
2022-08-19T09:55:30.927Z,24.83
2022-08-19T09:58:03.134Z,28.55
2022-08-19T10:00:31.807Z,29.65
2022-08-19T10:02:58.872Z,23.63
2022-08-19T10:05:44.162Z,20.08
2022-08-19T10:08:13.195Z,25.73
2022-08-19T10:10:47.060Z,24.98
2022-08-19T10:13:18.239Z,26.67
2022-08-19T10:15:48.094Z,24.85
2022-08-19T10:18:21.054Z,24.48
2022-08-19T10:20:51.617Z,20.02
2022-08-19T10:23:21.939Z,23.55
2022-08-19T10:25:50.597Z,25.55
2022-08-19T10:28:19.482Z,20.52
2022-08-19T10:30:48.090Z,24.80
2022-08-19T10:33:16.019Z,22.63
2022-08-19T10:36:08.038Z,26.95
2022-08-19T10:38:35.401Z,22.65
2022-08-19T10:41:15.207Z,20.20
2022-08-19T10:43:43.454Z,21.17
2022-08-19T10:46:16.706Z,25.75
2022-08-19T10:48:45.111Z,22.63
2022-08-19T10:51:31.298Z,22.90
2022-08-19T10:53:59.254Z,25.35
2022-08-19T10:56:49.558Z,22.98
2022-08-19T10:59:18.537Z,21.42
2022-08-19T11:01:46.929Z,21.33
2022-08-19T11:04:15.891Z,85.93
2022-08-19T11:06:44.256Z,29.75
2022-08-19T11:09:34.257Z,21.35
2022-08-19T11:12:10.511Z,18.67
2022-08-19T11:14:38.647Z,19.75
2022-08-19T11:17:06.878Z,17.65
2022-08-19T11:19:37.606Z,15.18
2022-08-19T11:22:04.775Z,16.00
2022-08-19T11:24:33.616Z,15.75
2022-08-19T11:27:10.743Z,11.02
2022-08-19T11:29:40.058Z,9.70
2022-08-19T11:32:12.508Z,13.65
2022-08-19T11:34:40.178Z,16.52
2022-08-19T11:37:07.587Z,15.38
2022-08-19T11:39:42.045Z,13.95
2022-08-19T11:42:46.533Z,9.93
2022-08-19T11:45:21.965Z,10.90
2022-08-19T11:48:12.465Z,10.88
2022-08-19T11:50:43.044Z,9.25
2022-08-19T11:53:14.031Z,10.48
2022-08-19T11:55:43.388Z,12.40
2022-08-19T11:58:27.397Z,10.25
2022-08-19T12:00:55.668Z,8.88
2022-08-19T12:03:25.599Z,10.27
2022-08-19T12:05:52.717Z,7.93
2022-08-19T12:08:20.248Z,8.68
2022-08-19T12:10:49.658Z,9.30
2022-08-19T12:13:19.233Z,10.60
2022-08-19T12:15:51.229Z,11.45
2022-08-19T12:18:18.169Z,9.50
2022-08-19T12:20:46.734Z,7.72
2022-08-19T12:27:32.110Z,8.48
2022-08-19T12:33:11.797Z,8.85
2022-08-19T12:35:48.581Z,7.43
2022-08-19T12:38:25.198Z,4.97
2022-08-19T12:40:55.090Z,6.63
2022-08-19T12:43:24.184Z,5.00
2022-08-19T12:45:51.931Z,6.93
2022-08-19T12:48:33.254Z,4.75
2022-08-19T12:51:02.946Z,4.50
2022-08-19T12:53:30.036Z,5.55
2022-08-19T12:55:59.047Z,7.75
2022-08-19T12:58:27.540Z,6.25
2022-08-19T13:00:57.449Z,5.78
2022-08-19T13:03:30.056Z,7.93
2022-08-19T13:05:57.684Z,8.07
2022-08-19T13:08:26.824Z,10.00
2022-08-19T13:10:54.458Z,6.50
2022-08-19T13:13:21.432Z,4.68
2022-08-19T13:15:48.395Z,4.55
2022-08-19T13:18:15.505Z,4.55
2022-08-19T13:20:43.322Z,5.35
2022-08-19T13:23:19.930Z,5.95
2022-08-19T13:25:58.760Z,10.13
2022-08-19T13:28:29.160Z,4.50
2022-08-19T13:31:15.047Z,9.18
2022-08-19T13:33:41.971Z,5.10
2022-08-19T13:36:09.603Z,6.70
2022-08-19T13:38:40.997Z,9.05
2022-08-19T13:41:12.163Z,5.43
2022-08-19T13:43:42.324Z,7.72
2022-08-19T13:46:15.915Z,7.90
2022-08-19T13:48:43.734Z,5.27
2022-08-19T13:51:11.783Z,5.78
2022-08-19T13:53:40.431Z,5.40
2022-08-19T13:56:11.711Z,7.15
2022-08-19T13:58:40.171Z,8.80
2022-08-19T14:01:10.242Z,9.65
2022-08-19T14:03:38.229Z,10.15
2022-08-19T14:06:05.795Z,8.93
2022-08-19T14:08:33.571Z,8.75
2022-08-19T14:11:01.634Z,7.28
2022-08-19T14:13:34.829Z,7.80
2022-08-19T14:16:02.085Z,8.15
2022-08-19T14:18:28.989Z,7.40
2022-08-19T14:20:57.943Z,10.10
2022-08-19T14:23:31.201Z,8.80
2022-08-19T14:26:12.525Z,9.07
2022-08-19T14:28:42.770Z,7.38
2022-08-19T14:31:19.355Z,8.00
2022-08-19T14:33:48.581Z,9.65
2022-08-19T14:36:15.687Z,9.35
2022-08-19T14:38:43.151Z,8.20
2022-08-19T14:41:20.266Z,6.13
2022-08-19T14:43:50.734Z,7.57
2022-08-19T14:46:22.365Z,6.47
2022-08-19T14:48:52.666Z,8.82
2022-08-19T14:51:22.482Z,11.48
2022-08-19T14:53:50.160Z,7.15
2022-08-19T14:56:24.083Z,8.80
2022-08-19T14:58:52.653Z,7.30
2022-08-19T15:01:22.299Z,11.27
2022-08-19T15:03:50.212Z,11.25
2022-08-19T15:06:18.111Z,10.77
2022-08-19T15:08:45.811Z,10.85
2022-08-19T15:11:17.430Z,11.27
2022-08-19T15:13:47.406Z,12.07
2022-08-19T15:16:17.752Z,12.43
2022-08-19T15:18:47.696Z,13.38
2022-08-19T15:21:27.250Z,17.30
2022-08-19T15:23:57.533Z,10.32
2022-08-19T15:30:01.506Z,9.32
2022-08-19T15:32:31.560Z,10.48
2022-08-19T15:35:04.355Z,10.27
2022-08-19T15:37:31.734Z,11.32
2022-08-19T15:39:58.825Z,10.50
2022-08-19T15:42:29.793Z,11.43
2022-08-19T15:45:00.402Z,9.23
2022-08-19T15:47:35.043Z,10.75
2022-08-19T15:50:21.625Z,8.57
2022-08-19T15:52:52.300Z,9.60
2022-08-19T15:55:33.225Z,13.52
2022-08-19T15:58:28.987Z,12.18
2022-08-19T16:01:27.397Z,10.95
2022-08-19T16:04:16.333Z,12.07
2022-08-19T16:06:50.786Z,12.15
2022-08-19T16:09:24.923Z,11.73
2022-08-19T16:12:01.648Z,10.00
2022-08-19T16:14:33.110Z,12.93
2022-08-19T16:17:00.191Z,11.55
2022-08-19T16:19:27.553Z,11.65
2022-08-19T16:21:56.865Z,11.40
2022-08-19T16:24:28.229Z,8.93
2022-08-19T16:26:56.887Z,9.65
2022-08-19T16:29:34.518Z,10.60
2022-08-19T16:32:11.103Z,11.38
2022-08-19T16:34:42.635Z,9.63
2022-08-19T16:37:10.355Z,11.35
2022-08-19T16:39:38.071Z,9.20
2022-08-19T16:42:07.767Z,8.73
2022-08-19T16:44:36.628Z,10.18
2022-08-19T16:47:03.909Z,11.50
2022-08-19T16:49:54.504Z,8.75
2022-08-19T16:52:19.909Z,8.73
2022-08-19T16:54:47.719Z,8.00
2022-08-19T16:57:14.678Z,8.40
2022-08-19T16:59:48.203Z,9.02
2022-08-19T17:02:22.961Z,10.48
2022-08-19T17:04:57.557Z,10.50
2022-08-19T17:07:28.217Z,13.85
2022-08-19T17:09:56.416Z,13.20
2022-08-19T17:12:30.590Z,8.38
2022-08-19T17:15:01.285Z,7.88
2022-08-19T17:17:30.064Z,11.30
2022-08-19T17:19:59.137Z,8.25
2022-08-19T17:22:26.772Z,10.93
2022-08-19T17:24:56.124Z,10.05
2022-08-19T17:27:32.215Z,10.02
2022-08-19T17:30:02.211Z,10.95
2022-08-19T17:32:34.661Z,7.25
2022-08-19T17:35:04.000Z,15.32
2022-08-19T17:37:30.864Z,11.77
2022-08-19T17:39:57.970Z,9.68
2022-08-19T17:42:24.942Z,9.80
2022-08-19T17:44:51.803Z,10.55
2022-08-19T17:47:19.411Z,12.25
2022-08-19T17:49:46.808Z,15.70
2022-08-19T17:52:14.031Z,16.15
2022-08-19T17:54:44.609Z,15.07
2022-08-19T17:57:11.675Z,14.48
2022-08-19T17:59:38.831Z,14.88
2022-08-19T18:02:10.066Z,18.63
2022-08-19T18:04:38.365Z,16.23
2022-08-19T18:07:06.190Z,12.82
2022-08-19T18:09:42.459Z,14.40
2022-08-19T18:12:13.876Z,17.83
2022-08-19T18:14:42.197Z,12.60
2022-08-19T18:17:14.134Z,15.02
2022-08-19T18:19:43.852Z,16.20
2022-08-19T18:22:36.509Z,13.75
2022-08-19T18:25:13.154Z,12.18
2022-08-19T18:27:40.296Z,12.60
2022-08-19T18:30:08.291Z,11.10
2022-08-19T18:32:39.204Z,11.52
2022-08-19T18:35:12.696Z,12.82
2022-08-19T18:37:45.400Z,9.18
2022-08-19T18:40:38.252Z,8.77
2022-08-19T18:43:24.774Z,6.88
2022-08-19T18:46:10.609Z,7.53
2022-08-19T18:48:57.844Z,6.53
2022-08-19T18:51:29.859Z,6.15
2022-08-19T18:53:58.732Z,6.60
2022-08-19T18:56:29.168Z,5.18
2022-08-19T18:58:58.893Z,5.88
2022-08-19T19:01:31.809Z,7.03
2022-08-19T19:04:10.404Z,9.38
2022-08-19T19:06:40.414Z,6.72
2022-08-19T19:09:11.110Z,8.13
2022-08-19T19:11:43.998Z,7.45
2022-08-19T19:14:38.773Z,5.78
2022-08-19T19:17:13.804Z,6.07
2022-08-19T19:19:42.651Z,6.32
2022-08-19T19:22:18.259Z,9.10
2022-08-19T19:24:45.464Z,4.97
2022-08-19T19:27:15.844Z,6.55
2022-08-19T19:29:42.981Z,4.93
2022-08-19T19:32:19.530Z,5.65
2022-08-19T19:34:46.723Z,5.72
2022-08-19T19:37:13.932Z,5.82
2022-08-19T19:39:45.425Z,7.47
2022-08-19T19:42:21.329Z,6.25
2022-08-19T19:44:51.880Z,6.93
2022-08-19T19:47:19.534Z,6.18
2022-08-19T19:50:13.226Z,7.78
2022-08-19T19:52:40.697Z,8.55
2022-08-19T19:55:15.535Z,8.38
2022-08-19T20:00:11.134Z,8.75
2022-08-19T20:02:38.036Z,12.07
2022-08-19T20:05:06.219Z,8.30
2022-08-19T20:07:51.602Z,8.38
2022-08-19T20:10:18.670Z,11.70
2022-08-19T20:12:45.617Z,11.07
2022-08-19T20:15:13.003Z,7.97
2022-08-19T20:17:42.905Z,13.43
2022-08-19T20:20:15.431Z,9.45
2022-08-19T20:22:43.775Z,9.32
2022-08-19T20:25:13.001Z,9.73
2022-08-19T20:27:41.122Z,9.57
2022-08-19T20:30:19.135Z,12.27
2022-08-19T20:32:48.235Z,9.30
2022-08-19T20:35:19.671Z,10.00
2022-08-19T20:37:46.714Z,11.18
2022-08-19T20:40:15.334Z,11.73
2022-08-19T20:42:43.772Z,13.68
2022-08-19T20:45:29.427Z,10.50
2022-08-19T20:47:59.439Z,14.40
2022-08-19T20:50:26.308Z,13.55
2022-08-19T20:52:57.452Z,15.63
2022-08-19T20:55:26.368Z,13.32
2022-08-19T20:57:53.973Z,15.32
2022-08-19T21:00:21.051Z,15.10
2022-08-19T21:02:48.004Z,14.65
2022-08-19T21:05:15.045Z,14.90
2022-08-19T21:07:42.699Z,14.02
2022-08-19T21:10:09.845Z,16.17
2022-08-19T21:12:36.865Z,14.88
2022-08-19T21:15:04.949Z,13.35
2022-08-19T21:17:31.811Z,12.65
2022-08-19T21:19:58.839Z,12.43
2022-08-19T21:22:25.920Z,12.57
2022-08-19T21:24:52.834Z,13.18
2022-08-19T21:27:19.696Z,16.20
2022-08-19T21:29:46.546Z,14.85
2022-08-19T21:32:14.053Z,11.52
2022-08-19T21:34:42.728Z,12.73
2022-08-19T21:37:25.320Z,14.85
2022-08-19T21:39:56.694Z,13.88
2022-08-19T21:42:24.214Z,11.25
2022-08-19T21:44:51.825Z,11.50
2022-08-19T21:47:18.840Z,12.63
2022-08-19T21:49:46.074Z,16.55
2022-08-19T21:52:13.472Z,13.90
2022-08-19T21:54:40.639Z,15.05
2022-08-19T21:57:10.850Z,13.20
2022-08-19T21:59:44.225Z,13.23
2022-08-19T22:02:20.411Z,10.25
2022-08-19T22:04:52.839Z,10.68
2022-08-19T22:07:21.695Z,10.98
2022-08-19T22:09:51.443Z,12.48
2022-08-19T22:12:29.267Z,14.30
2022-08-19T22:14:58.399Z,11.05
2022-08-19T22:17:27.535Z,13.13
2022-08-19T22:19:56.035Z,12.63
2022-08-19T22:22:30.572Z,12.60
2022-08-19T22:25:11.994Z,12.27
2022-08-19T22:27:39.678Z,14.35
2022-08-19T22:30:11.302Z,11.70
2022-08-19T22:32:56.165Z,11.55
2022-08-19T22:35:25.405Z,11.82
2022-08-19T22:37:52.245Z,12.65
2022-08-19T22:40:26.469Z,11.68
2022-08-19T22:43:14.404Z,11.70
2022-08-19T22:45:54.674Z,14.18
2022-08-19T22:48:34.354Z,12.27
2022-08-19T22:51:19.757Z,15.38
2022-08-19T22:56:19.181Z,12.88
2022-08-19T22:58:50.108Z,14.60
2022-08-19T23:01:24.826Z,14.38
2022-08-19T23:03:56.408Z,12.93
2022-08-19T23:06:23.303Z,12.40
2022-08-19T23:09:00.348Z,13.40
2022-08-19T23:11:27.202Z,17.90
2022-08-19T23:13:54.082Z,19.52
2022-08-19T23:16:21.246Z,13.10
2022-08-19T23:18:48.635Z,18.17
2022-08-19T23:21:21.893Z,16.88
2022-08-19T23:23:48.905Z,13.80
2022-08-19T23:26:15.742Z,17.20
2022-08-19T23:29:01.098Z,16.50
2022-08-19T23:33:54.978Z,16.42
2022-08-19T23:36:27.023Z,15.10
2022-08-19T23:38:53.907Z,15.10
2022-08-19T23:41:27.189Z,14.85
2022-08-19T23:43:54.956Z,17.88
2022-08-19T23:46:28.009Z,18.17
2022-08-19T23:48:57.309Z,17.15
2022-08-19T23:51:27.039Z,18.92
2022-08-19T23:53:54.443Z,14.50
2022-08-19T23:56:30.429Z,16.27
2022-08-19T23:58:57.360Z,14.82
